sensor_id;sensor_type;location;lat;lon;timestamp;temperature;humidity
21518;DHT22;61765;45.794;24.150;2023-06-14T00:00:11;21.90;99.90
21518;DHT22;61765;45.794;24.150;2023-06-14T00:08:18;21.20;99.90
21518;DHT22;61765;45.794;24.150;2023-06-14T00:16:27;20.80;99.90
21518;DHT22;61765;45.794;24.150;2023-06-14T00:24:35;21.20;99.90
21518;DHT22;61765;45.794;24.150;2023-06-14T00:32:43;21.20;99.90
21518;DHT22;61765;45.794;24.150;2023-06-14T00:40:49;21.50;99.90
21518;DHT22;61765;45.794;24.150;2023-06-14T00:48:59;21.60;99.90
21518;DHT22;61765;45.794;24.150;2023-06-14T00:57:05;21.60;99.90
21518;DHT22;61765;45.794;24.150;2023-06-14T01:05:14;21.60;99.90
21518;DHT22;61765;45.794;24.150;2023-06-14T01:13:23;21.60;99.90
21518;DHT22;61765;45.794;24.150;2023-06-14T01:21:32;21.50;99.90
21518;DHT22;61765;45.794;24.150;2023-06-14T01:29:47;21.70;99.90
21518;DHT22;61765;45.794;24.150;2023-06-14T01:37:53;21.70;99.90
21518;DHT22;61765;45.794;24.150;2023-06-14T01:46:03;21.70;99.90
21518;DHT22;61765;45.794;24.150;2023-06-14T01:54:10;21.70;99.90
21518;DHT22;61765;45.794;24.150;2023-06-14T02:02:18;21.70;99.90
21518;DHT22;61765;45.794;24.150;2023-06-14T02:10:23;21.70;99.90
21518;DHT22;61765;45.794;24.150;2023-06-14T02:18:32;21.70;99.90
21518;DHT22;61765;45.794;24.150;2023-06-14T02:26:38;21.60;99.90
21518;DHT22;61765;45.794;24.150;2023-06-14T02:34:46;21.20;99.90
21518;DHT22;61765;45.794;24.150;2023-06-14T02:42:52;21.10;99.90
21518;DHT22;61765;45.794;24.150;2023-06-14T02:51:00;21.20;99.90
21518;DHT22;61765;45.794;24.150;2023-06-14T02:59:05;20.80;99.90
21518;DHT22;61765;45.794;24.150;2023-06-14T03:07:15;21.10;99.90
21518;DHT22;61765;45.794;24.150;2023-06-14T03:15:25;21.20;99.90
21518;DHT22;61765;45.794;24.150;2023-06-14T03:23:34;21.30;99.90
21518;DHT22;61765;45.794;24.150;2023-06-14T03:31:56;21.50;99.90
21518;DHT22;61765;45.794;24.150;2023-06-14T03:40:16;21.20;99.90
21518;DHT22;61765;45.794;24.150;2023-06-14T03:48:26;21.30;99.90
21518;DHT22;61765;45.794;24.150;2023-06-14T03:56:35;21.50;99.90
21518;DHT22;61765;45.794;24.150;2023-06-14T04:04:44;21.70;99.90
21518;DHT22;61765;45.794;24.150;2023-06-14T04:12:53;21.70;99.90
21518;DHT22;61765;45.794;24.150;2023-06-14T04:20:59;21.90;99.90
21518;DHT22;61765;45.794;24.150;2023-06-14T04:29:07;22.10;99.90
21518;DHT22;61765;45.794;24.150;2023-06-14T04:37:17;21.70;99.90
21518;DHT22;61765;45.794;24.150;2023-06-14T04:45:26;22.10;99.90
21518;DHT22;61765;45.794;24.150;2023-06-14T04:53:35;22.40;99.90
21518;DHT22;61765;45.794;24.150;2023-06-14T05:01:43;22.60;99.90
21518;DHT22;61765;45.794;24.150;2023-06-14T05:09:52;22.80;99.90
21518;DHT22;61765;45.794;24.150;2023-06-14T05:18:00;22.40;99.50
21518;DHT22;61765;45.794;24.150;2023-06-14T05:26:06;22.80;99.90
21518;DHT22;61765;45.794;24.150;2023-06-14T05:34:14;23.20;99.70
21518;DHT22;61765;45.794;24.150;2023-06-14T05:42:19;23.80;98.50
21518;DHT22;61765;45.794;24.150;2023-06-14T05:50:27;24.20;97.60
21518;DHT22;61765;45.794;24.150;2023-06-14T05:58:33;24.30;98.00
21518;DHT22;61765;45.794;24.150;2023-06-14T06:06:40;24.30;97.70
21518;DHT22;61765;45.794;24.150;2023-06-14T06:14:46;24.60;97.00
21518;DHT22;61765;45.794;24.150;2023-06-14T06:22:54;24.60;96.60
21518;DHT22;61765;45.794;24.150;2023-06-14T06:30:59;24.40;97.20
21518;DHT22;61765;45.794;24.150;2023-06-14T06:39:09;24.40;95.70
21518;DHT22;61765;45.794;24.150;2023-06-14T06:47:15;25.00;95.40
21518;DHT22;61765;45.794;24.150;2023-06-14T06:55:23;25.40;94.40
21518;DHT22;61765;45.794;24.150;2023-06-14T07:03:28;25.90;93.90
21518;DHT22;61765;45.794;24.150;2023-06-14T07:11:37;26.20;92.00
21518;DHT22;61765;45.794;24.150;2023-06-14T07:19:42;25.70;91.60
21518;DHT22;61765;45.794;24.150;2023-06-14T07:27:52;25.80;91.70
21518;DHT22;61765;45.794;24.150;2023-06-14T07:35:58;25.60;91.60
21518;DHT22;61765;45.794;24.150;2023-06-14T07:44:06;26.00;90.10
21518;DHT22;61765;45.794;24.150;2023-06-14T07:52:12;25.70;90.30
21518;DHT22;61765;45.794;24.150;2023-06-14T08:00:21;25.40;90.10
21518;DHT22;61765;45.794;24.150;2023-06-14T08:08:27;26.20;90.10
21518;DHT22;61765;45.794;24.150;2023-06-14T08:16:35;26.40;89.50
21518;DHT22;61765;45.794;24.150;2023-06-14T08:24:41;26.80;86.40
21518;DHT22;61765;45.794;24.150;2023-06-14T08:32:49;27.20;85.40
21518;DHT22;61765;45.794;24.150;2023-06-14T08:41:12;26.70;85.30
21518;DHT22;61765;45.794;24.150;2023-06-14T08:49:25;27.50;83.30
21518;DHT22;61765;45.794;24.150;2023-06-14T08:57:32;27.90;81.00
21518;DHT22;61765;45.794;24.150;2023-06-14T09:05:42;28.40;76.60
21518;DHT22;61765;45.794;24.150;2023-06-14T09:13:49;27.90;78.60
21518;DHT22;61765;45.794;24.150;2023-06-14T09:21:57;28.00;79.00
21518;DHT22;61765;45.794;24.150;2023-06-14T09:30:04;28.10;77.80
21518;DHT22;61765;45.794;24.150;2023-06-14T09:38:13;27.40;77.60
21518;DHT22;61765;45.794;24.150;2023-06-14T09:46:19;27.10;82.60
21518;DHT22;61765;45.794;24.150;2023-06-14T09:54:28;27.70;81.20
21518;DHT22;61765;45.794;24.150;2023-06-14T10:02:36;27.90;79.10
21518;DHT22;61765;45.794;24.150;2023-06-14T10:10:47;28.10;76.00
21518;DHT22;61765;45.794;24.150;2023-06-14T10:19:00;28.60;76.60
21518;DHT22;61765;45.794;24.150;2023-06-14T10:27:13;29.00;75.00
21518;DHT22;61765;45.794;24.150;2023-06-14T10:35:20;28.50;75.40
21518;DHT22;61765;45.794;24.150;2023-06-14T10:43:29;27.90;77.00
21518;DHT22;61765;45.794;24.150;2023-06-14T10:51:39;27.20;78.20
21518;DHT22;61765;45.794;24.150;2023-06-14T10:59:52;27.80;79.30
21518;DHT22;61765;45.794;24.150;2023-06-14T11:08:18;28.40;77.80
21518;DHT22;61765;45.794;24.150;2023-06-14T11:16:31;27.80;76.00
21518;DHT22;61765;45.794;24.150;2023-06-14T11:24:38;29.00;80.80
21518;DHT22;61765;45.794;24.150;2023-06-14T11:32:46;30.00;76.80
21518;DHT22;61765;45.794;24.150;2023-06-14T11:40:58;31.20;76.80
21518;DHT22;61765;45.794;24.150;2023-06-14T11:49:07;32.80;73.50
21518;DHT22;61765;45.794;24.150;2023-06-14T11:57:13;33.80;67.80
21518;DHT22;61765;45.794;24.150;2023-06-14T12:05:21;33.80;67.40
21518;DHT22;61765;45.794;24.150;2023-06-14T12:13:27;32.80;66.00
21518;DHT22;61765;45.794;24.150;2023-06-14T12:21:37;31.50;67.80
21518;DHT22;61765;45.794;24.150;2023-06-14T12:29:43;30.10;69.50
21518;DHT22;61765;45.794;24.150;2023-06-14T12:37:52;29.30;73.70
21518;DHT22;61765;45.794;24.150;2023-06-14T12:45:57;28.60;74.60
21518;DHT22;61765;45.794;24.150;2023-06-14T12:54:06;30.10;78.30
21518;DHT22;61765;45.794;24.150;2023-06-14T13:02:16;40.70;60.50
21518;DHT22;61765;45.794;24.150;2023-06-14T13:10:29;47.90;47.20
21518;DHT22;61765;45.794;24.150;2023-06-14T13:18:35;46.50;43.00
21518;DHT22;61765;45.794;24.150;2023-06-14T13:26:43;43.50;45.30
21518;DHT22;61765;45.794;24.150;2023-06-14T13:34:48;39.40;49.30
21518;DHT22;61765;45.794;24.150;2023-06-14T13:42:57;36.00;54.20
21518;DHT22;61765;45.794;24.150;2023-06-14T13:51:02;34.70;56.80
21518;DHT22;61765;45.794;24.150;2023-06-14T13:59:13;36.80;55.70
21518;DHT22;61765;45.794;24.150;2023-06-14T14:07:18;37.10;54.50
21518;DHT22;61765;45.794;24.150;2023-06-14T14:15:27;38.10;55.00
21518;DHT22;61765;45.794;24.150;2023-06-14T14:23:32;38.20;52.50
21518;DHT22;61765;45.794;24.150;2023-06-14T14:31:40;35.30;55.70
21518;DHT22;61765;45.794;24.150;2023-06-14T14:39:46;32.30;60.70
21518;DHT22;61765;45.794;24.150;2023-06-14T14:47:54;31.10;64.60
21518;DHT22;61765;45.794;24.150;2023-06-14T14:55:59;30.20;68.00
21518;DHT22;61765;45.794;24.150;2023-06-14T15:04:10;29.90;69.60
21518;DHT22;61765;45.794;24.150;2023-06-14T15:12:16;29.80;69.70
21518;DHT22;61765;45.794;24.150;2023-06-14T15:20:25;29.60;71.10
21518;DHT22;61765;45.794;24.150;2023-06-14T15:28:30;29.50;72.00
21518;DHT22;61765;45.794;24.150;2023-06-14T15:36:38;29.40;72.10
21518;DHT22;61765;45.794;24.150;2023-06-14T15:44:44;29.40;73.00
21518;DHT22;61765;45.794;24.150;2023-06-14T15:52:52;29.40;73.30
21518;DHT22;61765;45.794;24.150;2023-06-14T16:00:57;29.20;73.90
21518;DHT22;61765;45.794;24.150;2023-06-14T16:09:05;28.90;74.80
21518;DHT22;61765;45.794;24.150;2023-06-14T16:17:11;28.70;75.60
21518;DHT22;61765;45.794;24.150;2023-06-14T16:25:19;28.50;75.60
21518;DHT22;61765;45.794;24.150;2023-06-14T16:33:24;28.40;75.90
21518;DHT22;61765;45.794;24.150;2023-06-14T16:41:33;28.20;75.90
21518;DHT22;61765;45.794;24.150;2023-06-14T16:49:38;28.30;76.40
21518;DHT22;61765;45.794;24.150;2023-06-14T16:57:46;28.20;76.10
21518;DHT22;61765;45.794;24.150;2023-06-14T17:05:55;28.00;76.60
21518;DHT22;61765;45.794;24.150;2023-06-14T17:14:04;27.90;77.30
21518;DHT22;61765;45.794;24.150;2023-06-14T17:22:10;27.70;78.20
21518;DHT22;61765;45.794;24.150;2023-06-14T17:30:18;27.60;78.80
21518;DHT22;61765;45.794;24.150;2023-06-14T17:38:23;27.50;78.60
21518;DHT22;61765;45.794;24.150;2023-06-14T17:46:34;27.30;79.10
21518;DHT22;61765;45.794;24.150;2023-06-14T17:54:39;27.10;80.10
21518;DHT22;61765;45.794;24.150;2023-06-14T18:02:47;27.00;80.60
21518;DHT22;61765;45.794;24.150;2023-06-14T18:11:01;27.00;80.80
21518;DHT22;61765;45.794;24.150;2023-06-14T18:19:10;26.80;81.30
21518;DHT22;61765;45.794;24.150;2023-06-14T18:27:29;26.90;81.30
21518;DHT22;61765;45.794;24.150;2023-06-14T18:35:37;26.60;82.20
21518;DHT22;61765;45.794;24.150;2023-06-14T18:43:42;26.50;83.30
21518;DHT22;61765;45.794;24.150;2023-06-14T18:51:53;26.50;83.60
21518;DHT22;61765;45.794;24.150;2023-06-14T18:59:58;26.40;84.30
21518;DHT22;61765;45.794;24.150;2023-06-14T19:08:10;26.40;84.60
21518;DHT22;61765;45.794;24.150;2023-06-14T19:24:45;26.30;86.60
21518;DHT22;61765;45.794;24.150;2023-06-14T19:32:50;26.20;87.30
21518;DHT22;61765;45.794;24.150;2023-06-14T19:40:58;26.00;87.60
21518;DHT22;61765;45.794;24.150;2023-06-14T19:49:06;26.00;88.40
21518;DHT22;61765;45.794;24.150;2023-06-14T19:57:14;26.00;88.90
21518;DHT22;61765;45.794;24.150;2023-06-14T20:05:20;26.00;89.80
21518;DHT22;61765;45.794;24.150;2023-06-14T20:13:30;25.90;90.50
21518;DHT22;61765;45.794;24.150;2023-06-14T20:21:35;25.80;90.90
21518;DHT22;61765;45.794;24.150;2023-06-14T20:29:43;25.40;91.40
21518;DHT22;61765;45.794;24.150;2023-06-14T20:37:49;25.20;91.70
21518;DHT22;61765;45.794;24.150;2023-06-14T20:45:57;25.20;91.80
21518;DHT22;61765;45.794;24.150;2023-06-14T20:54:03;25.20;92.00
21518;DHT22;61765;45.794;24.150;2023-06-14T21:02:14;25.10;92.20
21518;DHT22;61765;45.794;24.150;2023-06-14T21:10:20;25.00;92.90
21518;DHT22;61765;45.794;24.150;2023-06-14T21:18:28;25.10;93.10
21518;DHT22;61765;45.794;24.150;2023-06-14T21:26:33;24.80;93.60
21518;DHT22;61765;45.794;24.150;2023-06-14T21:34:42;24.60;93.90
21518;DHT22;61765;45.794;24.150;2023-06-14T21:42:48;24.50;94.30
21518;DHT22;61765;45.794;24.150;2023-06-14T21:50:56;24.50;94.50
21518;DHT22;61765;45.794;24.150;2023-06-14T21:59:01;24.50;94.70
21518;DHT22;61765;45.794;24.150;2023-06-14T22:07:11;24.50;94.80
21518;DHT22;61765;45.794;24.150;2023-06-14T22:15:17;24.50;95.00
21518;DHT22;61765;45.794;24.150;2023-06-14T22:23:26;24.30;95.10
21518;DHT22;61765;45.794;24.150;2023-06-14T22:31:41;24.20;94.80
21518;DHT22;61765;45.794;24.150;2023-06-14T22:39:50;24.10;95.30
21518;DHT22;61765;45.794;24.150;2023-06-14T22:47:56;23.80;95.20
21518;DHT22;61765;45.794;24.150;2023-06-14T22:56:04;23.60;95.40
21518;DHT22;61765;45.794;24.150;2023-06-14T23:04:10;23.50;95.40
21518;DHT22;61765;45.794;24.150;2023-06-14T23:12:18;23.30;95.50
21518;DHT22;61765;45.794;24.150;2023-06-14T23:20:24;23.10;95.60
21518;DHT22;61765;45.794;24.150;2023-06-14T23:28:34;23.00;96.00
21518;DHT22;61765;45.794;24.150;2023-06-14T23:36:44;22.90;96.00
21518;DHT22;61765;45.794;24.150;2023-06-14T23:44:52;22.90;96.10
21518;DHT22;61765;45.794;24.150;2023-06-14T23:52:59;22.90;96.10
